sensor_id;sensor_type;location;lat;lon;timestamp;pressure;altitude;pressure_sealevel;temperature;humidity
41334;BME280;27078;46.428;6.256;2023-07-29T00:00:35;96126.75;;;19.17;100.00
41334;BME280;27078;46.428;6.256;2023-07-29T00:03:01;96131.09;;;19.18;100.00
41334;BME280;27078;46.428;6.256;2023-07-29T00:05:26;96129.25;;;19.18;100.00
41334;BME280;27078;46.428;6.256;2023-07-29T00:07:52;96137.25;;;19.18;100.00
41334;BME280;27078;46.428;6.256;2023-07-29T00:10:17;96133.28;;;19.07;100.00
41334;BME280;27078;46.428;6.256;2023-07-29T00:12:42;96141.31;;;19.07;100.00
41334;BME280;27078;46.428;6.256;2023-07-29T00:15:08;96140.72;;;19.12;100.00
41334;BME280;27078;46.428;6.256;2023-07-29T00:17:34;96145.00;;;19.06;100.00
41334;BME280;27078;46.428;6.256;2023-07-29T00:19:59;96141.91;;;19.03;100.00
41334;BME280;27078;46.428;6.256;2023-07-29T00:22:24;96141.03;;;18.96;100.00
41334;BME280;27078;46.428;6.256;2023-07-29T00:24:53;96137.28;;;18.90;100.00
41334;BME280;27078;46.428;6.256;2023-07-29T00:27:20;96141.63;;;18.91;100.00
41334;BME280;27078;46.428;6.256;2023-07-29T00:29:45;96146.19;;;18.97;100.00
41334;BME280;27078;46.428;6.256;2023-07-29T00:32:10;96144.19;;;19.06;100.00
41334;BME280;27078;46.428;6.256;2023-07-29T00:34:36;96144.03;;;19.14;100.00
41334;BME280;27078;46.428;6.256;2023-07-29T00:37:01;96147.47;;;19.43;100.00
41334;BME280;27078;46.428;6.256;2023-07-29T00:39:26;96146.22;;;19.80;100.00
41334;BME280;27078;46.428;6.256;2023-07-29T00:41:52;96148.34;;;20.05;100.00
41334;BME280;27078;46.428;6.256;2023-07-29T00:44:17;96140.75;;;20.22;100.00
41334;BME280;27078;46.428;6.256;2023-07-29T00:46:45;96145.22;;;20.01;100.00
41334;BME280;27078;46.428;6.256;2023-07-29T00:49:10;96143.34;;;19.82;100.00
41334;BME280;27078;46.428;6.256;2023-07-29T00:51:36;96139.75;;;19.68;100.00
41334;BME280;27078;46.428;6.256;2023-07-29T00:54:02;96141.56;;;19.54;100.00
41334;BME280;27078;46.428;6.256;2023-07-29T00:56:27;96139.69;;;19.48;100.00
41334;BME280;27078;46.428;6.256;2023-07-29T00:58:52;96140.91;;;19.45;100.00
41334;BME280;27078;46.428;6.256;2023-07-29T01:01:24;96154.03;;;19.40;100.00
41334;BME280;27078;46.428;6.256;2023-07-29T01:03:49;96151.56;;;19.39;100.00
41334;BME280;27078;46.428;6.256;2023-07-29T01:06:29;96148.94;;;19.45;100.00
41334;BME280;27078;46.428;6.256;2023-07-29T01:09:07;96155.16;;;19.59;100.00
41334;BME280;27078;46.428;6.256;2023-07-29T01:11:58;96152.56;;;19.72;100.00
41334;BME280;27078;46.428;6.256;2023-07-29T01:14:44;96153.81;;;19.77;100.00
41334;BME280;27078;46.428;6.256;2023-07-29T01:17:15;96150.91;;;19.71;100.00
41334;BME280;27078;46.428;6.256;2023-07-29T01:22:19;96153.75;;;19.63;100.00
41334;BME280;27078;46.428;6.256;2023-07-29T01:24:45;96153.91;;;19.55;100.00
41334;BME280;27078;46.428;6.256;2023-07-29T01:27:11;96159.03;;;19.50;100.00
41334;BME280;27078;46.428;6.256;2023-07-29T01:29:36;96157.31;;;19.36;100.00
41334;BME280;27078;46.428;6.256;2023-07-29T01:32:09;96160.41;;;19.32;100.00
41334;BME280;27078;46.428;6.256;2023-07-29T01:34:43;96159.81;;;19.37;100.00
41334;BME280;27078;46.428;6.256;2023-07-29T01:37:15;96159.38;;;19.33;100.00
41334;BME280;27078;46.428;6.256;2023-07-29T01:39:45;96161.03;;;19.35;100.00
41334;BME280;27078;46.428;6.256;2023-07-29T01:42:11;96164.72;;;19.33;100.00
41334;BME280;27078;46.428;6.256;2023-07-29T01:44:37;96150.59;;;19.53;100.00
41334;BME280;27078;46.428;6.256;2023-07-29T01:47:02;96155.50;;;19.84;100.00
41334;BME280;27078;46.428;6.256;2023-07-29T01:49:27;96150.84;;;20.20;100.00
41334;BME280;27078;46.428;6.256;2023-07-29T01:51:53;96150.47;;;20.49;100.00
41334;BME280;27078;46.428;6.256;2023-07-29T01:54:18;96155.84;;;20.76;100.00
41334;BME280;27078;46.428;6.256;2023-07-29T01:56:43;96152.34;;;20.96;100.00
41334;BME280;27078;46.428;6.256;2023-07-29T01:59:09;96153.59;;;20.73;100.00
41334;BME280;27078;46.428;6.256;2023-07-29T02:01:34;96154.38;;;20.53;100.00
41334;BME280;27078;46.428;6.256;2023-07-29T02:03:59;96149.59;;;20.29;100.00
41334;BME280;27078;46.428;6.256;2023-07-29T02:06:25;96157.84;;;20.27;100.00
41334;BME280;27078;46.428;6.256;2023-07-29T02:08:53;96150.03;;;20.26;100.00
41334;BME280;27078;46.428;6.256;2023-07-29T02:11:19;96158.88;;;20.20;100.00
41334;BME280;27078;46.428;6.256;2023-07-29T02:13:45;96158.44;;;20.09;100.00
41334;BME280;27078;46.428;6.256;2023-07-29T02:16:11;96165.03;;;20.00;100.00
41334;BME280;27078;46.428;6.256;2023-07-29T02:18:36;96159.41;;;19.82;100.00
41334;BME280;27078;46.428;6.256;2023-07-29T02:21:02;96162.53;;;19.92;100.00
41334;BME280;27078;46.428;6.256;2023-07-29T02:23:28;96157.81;;;20.01;100.00
41334;BME280;27078;46.428;6.256;2023-07-29T02:25:53;96163.44;;;20.32;100.00
41334;BME280;27078;46.428;6.256;2023-07-29T02:28:19;96164.72;;;20.63;100.00
41334;BME280;27078;46.428;6.256;2023-07-29T02:30:44;96167.59;;;20.88;100.00
41334;BME280;27078;46.428;6.256;2023-07-29T02:33:10;96167.59;;;20.95;100.00
41334;BME280;27078;46.428;6.256;2023-07-29T02:35:35;96168.88;;;20.79;100.00
41334;BME280;27078;46.428;6.256;2023-07-29T02:38:00;96159.34;;;20.70;100.00
41334;BME280;27078;46.428;6.256;2023-07-29T02:40:26;96166.56;;;20.49;100.00
41334;BME280;27078;46.428;6.256;2023-07-29T02:42:52;96163.03;;;20.42;100.00
41334;BME280;27078;46.428;6.256;2023-07-29T02:45:17;96158.72;;;20.41;100.00
41334;BME280;27078;46.428;6.256;2023-07-29T02:47:43;96171.31;;;20.47;100.00
41334;BME280;27078;46.428;6.256;2023-07-29T02:50:08;96180.16;;;20.28;100.00
41334;BME280;27078;46.428;6.256;2023-07-29T02:52:34;96170.22;;;20.22;100.00
41334;BME280;27078;46.428;6.256;2023-07-29T02:54:59;96167.94;;;20.19;100.00
41334;BME280;27078;46.428;6.256;2023-07-29T02:57:25;96163.19;;;20.07;100.00
41334;BME280;27078;46.428;6.256;2023-07-29T02:59:50;96165.84;;;19.94;100.00
41334;BME280;27078;46.428;6.256;2023-07-29T03:02:15;96154.09;;;19.95;100.00
41334;BME280;27078;46.428;6.256;2023-07-29T03:04:41;96154.72;;;19.97;100.00
41334;BME280;27078;46.428;6.256;2023-07-29T03:07:06;96157.59;;;20.02;100.00
41334;BME280;27078;46.428;6.256;2023-07-29T03:09:32;96155.53;;;20.04;100.00
41334;BME280;27078;46.428;6.256;2023-07-29T03:11:58;96158.00;;;19.99;100.00
41334;BME280;27078;46.428;6.256;2023-07-29T03:14:24;96159.69;;;20.07;100.00
41334;BME280;27078;46.428;6.256;2023-07-29T03:16:49;96158.47;;;20.23;100.00
41334;BME280;27078;46.428;6.256;2023-07-29T03:19:15;96160.97;;;20.51;100.00
41334;BME280;27078;46.428;6.256;2023-07-29T03:21:40;96171.31;;;20.74;100.00
41334;BME280;27078;46.428;6.256;2023-07-29T03:24:05;96169.69;;;20.80;100.00
41334;BME280;27078;46.428;6.256;2023-07-29T03:26:32;96168.66;;;20.61;100.00
41334;BME280;27078;46.428;6.256;2023-07-29T03:28:57;96165.50;;;20.44;100.00
41334;BME280;27078;46.428;6.256;2023-07-29T03:31:22;96174.97;;;20.20;100.00
41334;BME280;27078;46.428;6.256;2023-07-29T03:33:48;96164.59;;;19.97;100.00
41334;BME280;27078;46.428;6.256;2023-07-29T03:36:13;96165.59;;;19.89;100.00
41334;BME280;27078;46.428;6.256;2023-07-29T03:38:39;96170.13;;;19.82;100.00
41334;BME280;27078;46.428;6.256;2023-07-29T03:41:07;96174.91;;;19.93;100.00
41334;BME280;27078;46.428;6.256;2023-07-29T03:43:33;96172.25;;;20.06;100.00
41334;BME280;27078;46.428;6.256;2023-07-29T03:46:00;96168.38;;;20.16;100.00
41334;BME280;27078;46.428;6.256;2023-07-29T03:48:25;96168.63;;;20.34;100.00
41334;BME280;27078;46.428;6.256;2023-07-29T03:50:50;96169.44;;;20.54;100.00
41334;BME280;27078;46.428;6.256;2023-07-29T03:53:16;96174.44;;;20.58;100.00
41334;BME280;27078;46.428;6.256;2023-07-29T03:55:42;96179.59;;;20.66;100.00
41334;BME280;27078;46.428;6.256;2023-07-29T03:58:07;96183.66;;;20.48;100.00
41334;BME280;27078;46.428;6.256;2023-07-29T04:00:32;96189.22;;;20.40;100.00
41334;BME280;27078;46.428;6.256;2023-07-29T04:02:58;96192.75;;;20.34;100.00
41334;BME280;27078;46.428;6.256;2023-07-29T04:05:23;96189.81;;;20.16;100.00
41334;BME280;27078;46.428;6.256;2023-07-29T04:07:49;96192.22;;;19.97;100.00
41334;BME280;27078;46.428;6.256;2023-07-29T04:10:15;96189.25;;;19.79;100.00
41334;BME280;27078;46.428;6.256;2023-07-29T04:12:41;96188.84;;;19.75;100.00
41334;BME280;27078;46.428;6.256;2023-07-29T04:15:08;96186.03;;;19.90;100.00
41334;BME280;27078;46.428;6.256;2023-07-29T04:17:34;96200.25;;;19.97;100.00
41334;BME280;27078;46.428;6.256;2023-07-29T04:20:00;96198.00;;;19.94;100.00
41334;BME280;27078;46.428;6.256;2023-07-29T04:22:25;96200.41;;;19.76;100.00
41334;BME280;27078;46.428;6.256;2023-07-29T04:24:50;96195.22;;;19.74;100.00
41334;BME280;27078;46.428;6.256;2023-07-29T04:27:16;96197.94;;;19.81;100.00
41334;BME280;27078;46.428;6.256;2023-07-29T04:29:41;96193.59;;;19.80;100.00
41334;BME280;27078;46.428;6.256;2023-07-29T04:32:06;96196.13;;;19.95;100.00
41334;BME280;27078;46.428;6.256;2023-07-29T04:34:32;96187.50;;;19.99;100.00
41334;BME280;27078;46.428;6.256;2023-07-29T04:36:57;96195.72;;;19.98;100.00
41334;BME280;27078;46.428;6.256;2023-07-29T04:39:23;96192.66;;;20.01;100.00
41334;BME280;27078;46.428;6.256;2023-07-29T04:41:48;96192.13;;;20.32;100.00
41334;BME280;27078;46.428;6.256;2023-07-29T04:44:14;96198.16;;;20.67;100.00
41334;BME280;27078;46.428;6.256;2023-07-29T04:46:39;96195.28;;;21.02;100.00
41334;BME280;27078;46.428;6.256;2023-07-29T04:49:05;96199.16;;;21.26;100.00
41334;BME280;27078;46.428;6.256;2023-07-29T04:51:30;96205.75;;;21.37;100.00
41334;BME280;27078;46.428;6.256;2023-07-29T04:53:57;96205.75;;;21.44;100.00
41334;BME280;27078;46.428;6.256;2023-07-29T04:56:22;96204.34;;;21.21;100.00
41334;BME280;27078;46.428;6.256;2023-07-29T04:58:47;96195.06;;;20.90;100.00
41334;BME280;27078;46.428;6.256;2023-07-29T05:01:13;96195.50;;;20.87;100.00
41334;BME280;27078;46.428;6.256;2023-07-29T05:03:38;96190.34;;;20.66;100.00
41334;BME280;27078;46.428;6.256;2023-07-29T05:06:05;96186.59;;;20.60;100.00
41334;BME280;27078;46.428;6.256;2023-07-29T05:08:30;96196.88;;;20.43;100.00
41334;BME280;27078;46.428;6.256;2023-07-29T05:10:56;96196.06;;;20.56;100.00
41334;BME280;27078;46.428;6.256;2023-07-29T05:13:21;96200.22;;;20.72;100.00
41334;BME280;27078;46.428;6.256;2023-07-29T05:15:48;96197.13;;;20.88;100.00
41334;BME280;27078;46.428;6.256;2023-07-29T05:18:14;96201.44;;;21.16;100.00
41334;BME280;27078;46.428;6.256;2023-07-29T05:20:39;96196.69;;;21.31;100.00
41334;BME280;27078;46.428;6.256;2023-07-29T05:23:05;96200.59;;;21.22;100.00
41334;BME280;27078;46.428;6.256;2023-07-29T05:25:30;96187.41;;;21.01;100.00
41334;BME280;27078;46.428;6.256;2023-07-29T05:27:55;96190.31;;;20.99;100.00
41334;BME280;27078;46.428;6.256;2023-07-29T05:30:23;96187.00;;;21.04;100.00
41334;BME280;27078;46.428;6.256;2023-07-29T05:32:48;96179.56;;;21.19;100.00
41334;BME280;27078;46.428;6.256;2023-07-29T05:35:14;96184.47;;;21.49;100.00
41334;BME280;27078;46.428;6.256;2023-07-29T05:37:40;96197.41;;;21.79;100.00
41334;BME280;27078;46.428;6.256;2023-07-29T05:40:06;96191.31;;;21.96;100.00
41334;BME280;27078;46.428;6.256;2023-07-29T05:42:32;96183.75;;;22.19;100.00
41334;BME280;27078;46.428;6.256;2023-07-29T05:44:58;96193.84;;;22.30;100.00
41334;BME280;27078;46.428;6.256;2023-07-29T05:47:23;96195.44;;;22.44;100.00
41334;BME280;27078;46.428;6.256;2023-07-29T05:49:49;96194.00;;;22.67;100.00
41334;BME280;27078;46.428;6.256;2023-07-29T05:52:14;96196.50;;;22.93;100.00
41334;BME280;27078;46.428;6.256;2023-07-29T05:54:40;96207.19;;;23.07;100.00
41334;BME280;27078;46.428;6.256;2023-07-29T05:57:05;96207.81;;;23.27;100.00
41334;BME280;27078;46.428;6.256;2023-07-29T05:59:31;96205.16;;;23.46;100.00
41334;BME280;27078;46.428;6.256;2023-07-29T06:01:56;96194.25;;;23.59;100.00
41334;BME280;27078;46.428;6.256;2023-07-29T06:04:21;96181.66;;;23.71;100.00
41334;BME280;27078;46.428;6.256;2023-07-29T06:06:47;96182.44;;;23.78;100.00
41334;BME280;27078;46.428;6.256;2023-07-29T06:09:12;96191.56;;;23.77;100.00
41334;BME280;27078;46.428;6.256;2023-07-29T06:11:37;96201.13;;;23.73;100.00
41334;BME280;27078;46.428;6.256;2023-07-29T06:14:03;96218.06;;;23.62;100.00
41334;BME280;27078;46.428;6.256;2023-07-29T06:16:28;96220.59;;;23.57;100.00
41334;BME280;27078;46.428;6.256;2023-07-29T06:18:53;96232.44;;;23.56;100.00
41334;BME280;27078;46.428;6.256;2023-07-29T06:21:19;96224.94;;;23.58;100.00
41334;BME280;27078;46.428;6.256;2023-07-29T06:23:46;96216.41;;;23.61;100.00
41334;BME280;27078;46.428;6.256;2023-07-29T06:26:11;96215.38;;;23.62;100.00
41334;BME280;27078;46.428;6.256;2023-07-29T06:28:37;96214.31;;;23.63;100.00
41334;BME280;27078;46.428;6.256;2023-07-29T06:31:02;96215.38;;;23.62;100.00
41334;BME280;27078;46.428;6.256;2023-07-29T06:33:28;96211.00;;;23.61;100.00
41334;BME280;27078;46.428;6.256;2023-07-29T06:35:53;96212.06;;;23.60;100.00
41334;BME280;27078;46.428;6.256;2023-07-29T06:38:18;96214.31;;;23.63;100.00
41334;BME280;27078;46.428;6.256;2023-07-29T06:40:49;96207.84;;;23.64;100.00
41334;BME280;27078;46.428;6.256;2023-07-29T06:43:15;96194.06;;;23.72;100.00
41334;BME280;27078;46.428;6.256;2023-07-29T06:45:41;96189.09;;;23.76;100.00
41334;BME280;27078;46.428;6.256;2023-07-29T06:48:06;96198.59;;;23.78;100.00
41334;BME280;27078;46.428;6.256;2023-07-29T06:50:32;96207.66;;;23.84;100.00
41334;BME280;27078;46.428;6.256;2023-07-29T06:52:57;96203.00;;;23.91;100.00
41334;BME280;27078;46.428;6.256;2023-07-29T06:55:22;96209.31;;;23.85;100.00
41334;BME280;27078;46.428;6.256;2023-07-29T06:57:48;96199.47;;;23.72;100.00
41334;BME280;27078;46.428;6.256;2023-07-29T07:00:13;96204.81;;;23.61;100.00
41334;BME280;27078;46.428;6.256;2023-07-29T07:02:39;96203.00;;;23.54;100.00
41334;BME280;27078;46.428;6.256;2023-07-29T07:05:04;96200.91;;;23.56;100.00
41334;BME280;27078;46.428;6.256;2023-07-29T07:07:30;96209.78;;;23.38;100.00
41334;BME280;27078;46.428;6.256;2023-07-29T07:09:56;96203.72;;;23.25;100.00
41334;BME280;27078;46.428;6.256;2023-07-29T07:12:21;96195.78;;;23.30;100.00
41334;BME280;27078;46.428;6.256;2023-07-29T07:14:50;96195.09;;;23.34;100.00
41334;BME280;27078;46.428;6.256;2023-07-29T07:17:15;96203.06;;;23.48;100.00
41334;BME280;27078;46.428;6.256;2023-07-29T07:19:40;96207.09;;;23.57;100.00
41334;BME280;27078;46.428;6.256;2023-07-29T07:22:06;96197.03;;;23.71;100.00
41334;BME280;27078;46.428;6.256;2023-07-29T07:24:31;96203.78;;;23.80;100.00
41334;BME280;27078;46.428;6.256;2023-07-29T07:26:56;96198.47;;;23.92;100.00
41334;BME280;27078;46.428;6.256;2023-07-29T07:29:22;96197.41;;;23.93;100.00
41334;BME280;27078;46.428;6.256;2023-07-29T07:31:52;96198.91;;;23.89;100.00
41334;BME280;27078;46.428;6.256;2023-07-29T07:34:18;96197.25;;;23.88;100.00
41334;BME280;27078;46.428;6.256;2023-07-29T07:36:43;96198.69;;;23.90;100.00
41334;BME280;27078;46.428;6.256;2023-07-29T07:39:09;96199.56;;;23.84;100.00
41334;BME280;27078;46.428;6.256;2023-07-29T07:41:34;96213.88;;;23.85;100.00
41334;BME280;27078;46.428;6.256;2023-07-29T07:44:00;96215.16;;;23.82;100.00
41334;BME280;27078;46.428;6.256;2023-07-29T07:46:25;96208.47;;;23.85;100.00
41334;BME280;27078;46.428;6.256;2023-07-29T07:48:50;96216.19;;;23.81;100.00
41334;BME280;27078;46.428;6.256;2023-07-29T07:51:16;96220.94;;;23.86;100.00
41334;BME280;27078;46.428;6.256;2023-07-29T07:53:41;96218.88;;;23.81;100.00
41334;BME280;27078;46.428;6.256;2023-07-29T07:56:07;96226.41;;;23.72;100.00
41334;BME280;27078;46.428;6.256;2023-07-29T07:58:33;96231.00;;;23.72;100.00
41334;BME280;27078;46.428;6.256;2023-07-29T08:01:06;96238.47;;;23.70;100.00
41334;BME280;27078;46.428;6.256;2023-07-29T08:03:32;96234.59;;;23.66;100.00
41334;BME280;27078;46.428;6.256;2023-07-29T08:05:58;96234.81;;;23.64;100.00
41334;BME280;27078;46.428;6.256;2023-07-29T08:08:24;96228.59;;;23.64;100.00
41334;BME280;27078;46.428;6.256;2023-07-29T08:10:49;96223.00;;;23.65;100.00
41334;BME280;27078;46.428;6.256;2023-07-29T08:13:15;96230.94;;;23.60;100.00
41334;BME280;27078;46.428;6.256;2023-07-29T08:15:40;96238.63;;;23.56;100.00
41334;BME280;27078;46.428;6.256;2023-07-29T08:18:06;96229.72;;;23.56;100.00
41334;BME280;27078;46.428;6.256;2023-07-29T08:20:31;96231.81;;;23.54;100.00
41334;BME280;27078;46.428;6.256;2023-07-29T08:22:57;96228.28;;;23.53;100.00
41334;BME280;27078;46.428;6.256;2023-07-29T08:25:23;96229.63;;;23.44;100.00
41334;BME280;27078;46.428;6.256;2023-07-29T08:27:48;96230.09;;;23.41;100.00
41334;BME280;27078;46.428;6.256;2023-07-29T08:30:13;96216.84;;;23.40;100.00
41334;BME280;27078;46.428;6.256;2023-07-29T08:32:41;96208.16;;;23.37;100.00
41334;BME280;27078;46.428;6.256;2023-07-29T08:35:06;96201.09;;;23.36;100.00
41334;BME280;27078;46.428;6.256;2023-07-29T08:37:32;96183.91;;;23.37;100.00
41334;BME280;27078;46.428;6.256;2023-07-29T08:39:57;96203.31;;;23.21;100.00
41334;BME280;27078;46.428;6.256;2023-07-29T08:42:23;96220.38;;;23.15;100.00
41334;BME280;27078;46.428;6.256;2023-07-29T08:44:49;96224.94;;;23.14;100.00
41334;BME280;27078;46.428;6.256;2023-07-29T08:47:15;96220.53;;;23.20;100.00
41334;BME280;27078;46.428;6.256;2023-07-29T08:49:41;96223.09;;;23.33;100.00
41334;BME280;27078;46.428;6.256;2023-07-29T08:52:08;96230.84;;;23.48;100.00
41334;BME280;27078;46.428;6.256;2023-07-29T08:54:34;96221.03;;;23.54;100.00
41334;BME280;27078;46.428;6.256;2023-07-29T08:57:00;96226.56;;;23.59;100.00
41334;BME280;27078;46.428;6.256;2023-07-29T08:59:26;96222.16;;;23.65;100.00
41334;BME280;27078;46.428;6.256;2023-07-29T09:01:54;96233.09;;;23.70;100.00
41334;BME280;27078;46.428;6.256;2023-07-29T09:04:21;96234.03;;;23.82;100.00
41334;BME280;27078;46.428;6.256;2023-07-29T09:06:50;96231.25;;;23.89;100.00
41334;BME280;27078;46.428;6.256;2023-07-29T09:09:15;96231.97;;;23.96;100.00
41334;BME280;27078;46.428;6.256;2023-07-29T09:11:41;96231.09;;;24.02;100.00
41334;BME280;27078;46.428;6.256;2023-07-29T09:14:06;96240.53;;;24.11;100.00
41334;BME280;27078;46.428;6.256;2023-07-29T09:16:32;96232.94;;;24.20;100.00
41334;BME280;27078;46.428;6.256;2023-07-29T09:19:01;96237.78;;;24.30;100.00
41334;BME280;27078;46.428;6.256;2023-07-29T09:21:28;96238.44;;;24.44;100.00
41334;BME280;27078;46.428;6.256;2023-07-29T09:23:54;96228.78;;;24.54;100.00
41334;BME280;27078;46.428;6.256;2023-07-29T09:26:24;96235.47;;;24.64;100.00
41334;BME280;27078;46.428;6.256;2023-07-29T09:28:52;96239.19;;;24.51;100.00
41334;BME280;27078;46.428;6.256;2023-07-29T09:31:20;96233.72;;;24.57;100.00
41334;BME280;27078;46.428;6.256;2023-07-29T09:33:46;96238.81;;;24.47;100.00
41334;BME280;27078;46.428;6.256;2023-07-29T09:36:11;96237.97;;;24.47;100.00
41334;BME280;27078;46.428;6.256;2023-07-29T09:38:37;96237.25;;;24.39;100.00
41334;BME280;27078;46.428;6.256;2023-07-29T09:41:03;96250.38;;;24.36;100.00
41334;BME280;27078;46.428;6.256;2023-07-29T09:43:33;96253.72;;;24.20;100.00
41334;BME280;27078;46.428;6.256;2023-07-29T09:46:03;96255.50;;;24.07;100.00
41334;BME280;27078;46.428;6.256;2023-07-29T09:48:35;96262.25;;;23.98;100.00
41334;BME280;27078;46.428;6.256;2023-07-29T09:51:14;96261.72;;;23.89;100.00
41334;BME280;27078;46.428;6.256;2023-07-29T09:53:45;96252.00;;;23.88;100.00
41334;BME280;27078;46.428;6.256;2023-07-29T09:56:12;96241.28;;;23.82;100.00
41334;BME280;27078;46.428;6.256;2023-07-29T09:58:38;96244.66;;;23.77;100.00
41334;BME280;27078;46.428;6.256;2023-07-29T10:01:07;96253.72;;;23.83;100.00
41334;BME280;27078;46.428;6.256;2023-07-29T10:03:34;96263.59;;;23.89;100.00
41334;BME280;27078;46.428;6.256;2023-07-29T10:06:02;96272.44;;;23.96;100.00
41334;BME280;27078;46.428;6.256;2023-07-29T10:08:29;96273.78;;;24.05;100.00
41334;BME280;27078;46.428;6.256;2023-07-29T10:10:59;96256.72;;;24.11;100.00
41334;BME280;27078;46.428;6.256;2023-07-29T10:13:25;96247.84;;;24.23;100.00
41334;BME280;27078;46.428;6.256;2023-07-29T10:15:52;96246.41;;;24.38;100.00
41334;BME280;27078;46.428;6.256;2023-07-29T10:18:18;96258.31;;;24.49;100.00
41334;BME280;27078;46.428;6.256;2023-07-29T10:20:44;96265.72;;;24.54;100.00
41334;BME280;27078;46.428;6.256;2023-07-29T10:23:12;96266.81;;;24.65;100.00
41334;BME280;27078;46.428;6.256;2023-07-29T10:25:47;96260.31;;;24.84;100.00
41334;BME280;27078;46.428;6.256;2023-07-29T10:28:15;96260.78;;;24.93;100.00
41334;BME280;27078;46.428;6.256;2023-07-29T10:30:41;96264.56;;;25.04;100.00
41334;BME280;27078;46.428;6.256;2023-07-29T10:33:06;96274.44;;;24.98;100.00
41334;BME280;27078;46.428;6.256;2023-07-29T10:35:33;96267.88;;;24.64;100.00
41334;BME280;27078;46.428;6.256;2023-07-29T10:37:59;96272.19;;;24.34;100.00
41334;BME280;27078;46.428;6.256;2023-07-29T10:40:24;96270.53;;;24.33;100.00
41334;BME280;27078;46.428;6.256;2023-07-29T10:43:09;96272.13;;;24.23;100.00
41334;BME280;27078;46.428;6.256;2023-07-29T10:45:40;96269.13;;;24.12;100.00
41334;BME280;27078;46.428;6.256;2023-07-29T10:48:12;96281.88;;;24.05;100.00
41334;BME280;27078;46.428;6.256;2023-07-29T10:50:38;96280.09;;;23.99;100.00
41334;BME280;27078;46.428;6.256;2023-07-29T10:53:04;96286.16;;;23.94;100.00
41334;BME280;27078;46.428;6.256;2023-07-29T10:55:35;96287.44;;;23.92;100.00
41334;BME280;27078;46.428;6.256;2023-07-29T10:58:13;96280.97;;;23.93;100.00
41334;BME280;27078;46.428;6.256;2023-07-29T11:00:41;96283.53;;;23.88;100.00
41334;BME280;27078;46.428;6.256;2023-07-29T11:03:08;96282.47;;;23.89;100.00
41334;BME280;27078;46.428;6.256;2023-07-29T11:05:47;96292.81;;;23.92;100.00
41334;BME280;27078;46.428;6.256;2023-07-29T11:08:29;96275.50;;;24.00;100.00
41334;BME280;27078;46.428;6.256;2023-07-29T11:11:03;96289.44;;;24.15;100.00
41334;BME280;27078;46.428;6.256;2023-07-29T11:13:30;96291.00;;;24.23;100.00
41334;BME280;27078;46.428;6.256;2023-07-29T11:15:57;96302.63;;;24.23;100.00
41334;BME280;27078;46.428;6.256;2023-07-29T11:18:30;96315.16;;;24.17;100.00
41334;BME280;27078;46.428;6.256;2023-07-29T11:20:56;96314.06;;;24.00;100.00
41334;BME280;27078;46.428;6.256;2023-07-29T11:23:48;96314.69;;;23.84;100.00
41334;BME280;27078;46.428;6.256;2023-07-29T11:26:14;96315.56;;;23.77;100.00
41334;BME280;27078;46.428;6.256;2023-07-29T11:28:39;96316.22;;;23.73;100.00
41334;BME280;27078;46.428;6.256;2023-07-29T11:31:05;96319.09;;;23.53;100.00
41334;BME280;27078;46.428;6.256;2023-07-29T11:33:31;96317.50;;;23.45;100.00
41334;BME280;27078;46.428;6.256;2023-07-29T11:35:56;96314.56;;;23.47;100.00
41334;BME280;27078;46.428;6.256;2023-07-29T11:38:22;96320.41;;;23.44;100.00
41334;BME280;27078;46.428;6.256;2023-07-29T11:41:00;96324.13;;;23.43;100.00
41334;BME280;27078;46.428;6.256;2023-07-29T11:43:26;96315.44;;;23.41;100.00
41334;BME280;27078;46.428;6.256;2023-07-29T11:45:52;96323.81;;;23.32;100.00
41334;BME280;27078;46.428;6.256;2023-07-29T11:48:25;96315.84;;;23.19;100.00
41334;BME280;27078;46.428;6.256;2023-07-29T11:50:51;96314.88;;;23.07;100.00
41334;BME280;27078;46.428;6.256;2023-07-29T11:53:16;96320.72;;;23.04;100.00
41334;BME280;27078;46.428;6.256;2023-07-29T11:55:41;96318.09;;;22.90;100.00
41334;BME280;27078;46.428;6.256;2023-07-29T11:58:07;96320.38;;;22.87;100.00
41334;BME280;27078;46.428;6.256;2023-07-29T12:00:33;96314.66;;;22.76;100.00
41334;BME280;27078;46.428;6.256;2023-07-29T12:02:59;96326.94;;;22.66;100.00
41334;BME280;27078;46.428;6.256;2023-07-29T12:05:25;96325.09;;;22.60;100.00
41334;BME280;27078;46.428;6.256;2023-07-29T12:07:50;96322.66;;;22.51;100.00
41334;BME280;27078;46.428;6.256;2023-07-29T12:10:16;96330.56;;;22.40;100.00
41334;BME280;27078;46.428;6.256;2023-07-29T12:12:46;96335.94;;;22.46;100.00
41334;BME280;27078;46.428;6.256;2023-07-29T12:15:12;96323.94;;;22.42;100.00
41334;BME280;27078;46.428;6.256;2023-07-29T12:17:40;96318.59;;;22.35;100.00
41334;BME280;27078;46.428;6.256;2023-07-29T12:20:08;96326.03;;;22.40;100.00
41334;BME280;27078;46.428;6.256;2023-07-29T12:22:34;96323.13;;;22.42;100.00
41334;BME280;27078;46.428;6.256;2023-07-29T12:24:59;96327.66;;;22.41;100.00
41334;BME280;27078;46.428;6.256;2023-07-29T12:27:24;96321.47;;;22.41;100.00
41334;BME280;27078;46.428;6.256;2023-07-29T12:29:52;96319.81;;;22.40;100.00
41334;BME280;27078;46.428;6.256;2023-07-29T12:32:18;96318.56;;;22.42;100.00
41334;BME280;27078;46.428;6.256;2023-07-29T12:34:44;96322.28;;;22.41;100.00
41334;BME280;27078;46.428;6.256;2023-07-29T12:37:09;96322.28;;;22.41;100.00
41334;BME280;27078;46.428;6.256;2023-07-29T12:39:39;96306.56;;;22.38;100.00
41334;BME280;27078;46.428;6.256;2023-07-29T12:42:06;96316.09;;;22.34;100.00
41334;BME280;27078;46.428;6.256;2023-07-29T12:44:34;96325.19;;;22.33;100.00
41334;BME280;27078;46.428;6.256;2023-07-29T12:47:03;96330.19;;;22.29;100.00
41334;BME280;27078;46.428;6.256;2023-07-29T12:49:30;96333.31;;;22.26;100.00